<?xml version="1.0" encoding="utf-8"?>
<gpx xmlns:xsi="http://www.w3.org/2001/XMLSchema-instance" xmlns:xsd="http://www.w3.org/2001/XMLSchema" version="1.1" creator="Shapelink.com" xmlns="http://www.topografix.com/GPX/1/1" xmlns:gpxtpx="http://www.garmin.com/xmlschemas/TrackPointExtension/v1">
  <metadata>
    <name>Övrigt 1.03 km, 2020-06-14</name>
    <desc></desc>
    <author><name>Marian Moron</name></author> 
    <time>2020-06-14T11:31:45Z</time>
  </metadata>
  <trk>
    <name>Övrigt 1.03 km, 2020-06-14</name>
    <trkseg>
      <trkpt lat="51.229967527269" lon="4.457365590197">
        <ele>23.2</ele>
        <time>2020-06-14T11:31:45Z</time>
      </trkpt>
      <trkpt lat="51.229884797916" lon="4.456916739452">
        <ele>19.6</ele>
        <time>2020-06-14T11:32:12Z</time>
      </trkpt>
      <trkpt lat="51.229943806492" lon="4.456603759306">
        <ele>12</ele>
        <time>2020-06-14T11:32:36Z</time>
      </trkpt>
      <trkpt lat="51.230449989433" lon="4.456735271317">
        <ele>7.8</ele>
        <time>2020-06-14T11:33:32Z</time>
      </trkpt>
      <trkpt lat="51.230881238188" lon="4.45653469245">
        <ele>6</ele>
        <time>2020-06-14T11:34:14Z</time>
      </trkpt>
      <trkpt lat="51.231014258941" lon="4.455974362435">
        <ele>6</ele>
        <time>2020-06-14T11:34:38Z</time>
      </trkpt>
      <trkpt lat="51.231098664674" lon="4.455964220336">
        <ele>4.6</ele>
        <time>2020-06-14T11:34:46Z</time>
      </trkpt>
      <trkpt lat="51.231203438424" lon="4.455782165468">
        <ele>3.8</ele>
        <time>2020-06-14T11:35:17Z</time>
      </trkpt>
      <trkpt lat="51.23116521696" lon="4.455613437821">
        <ele>2.8</ele>
        <time>2020-06-14T11:35:26Z</time>
      </trkpt>
      <trkpt lat="51.231053150957" lon="4.454922769261">
        <ele>0</ele>
        <time>2020-06-14T11:36:10Z</time>
      </trkpt>
      <trkpt lat="51.230946952284" lon="4.454216845643">
        <ele>0</ele>
        <time>2020-06-14T11:36:59Z</time>
      </trkpt>
      <trkpt lat="51.230941168773" lon="4.454115173196">
        <ele>0</ele>
        <time>2020-06-14T11:37:06Z</time>
      </trkpt>
      <trkpt lat="51.23082994096" lon="4.453407992293">
        <ele>0</ele>
        <time>2020-06-14T11:37:51Z</time>
      </trkpt>
      <trkpt lat="51.23071594712" lon="4.452711456403">
        <ele>5</ele>
        <time>2020-06-14T11:38:32Z</time>
      </trkpt>
      <trkpt lat="51.230670098127" lon="4.452007376803">
        <ele>2.4</ele>
        <time>2020-06-14T11:39:15Z</time>
      </trkpt>
      <trkpt lat="51.230557110115" lon="4.4513085778">
        <ele>1</ele>
        <time>2020-06-14T11:39:53Z</time>
      </trkpt>
      <trkpt lat="51.230501957213" lon="4.4509733018">
        <ele>0</ele>
        <time>2020-06-14T11:40:13Z</time>
      </trkpt>
      <trkpt lat="51.230422748258" lon="4.450841119237">
        <ele>7.4</ele>
        <time>2020-06-14T11:42:58Z</time>
      </trkpt>
      <trkpt lat="51.230114545795" lon="4.451035830774">
        <ele>0</ele>
        <time>2020-06-14T11:43:43Z</time>
      </trkpt>
      <trkpt lat="51.229714729165" lon="4.45096994904">
        <ele>0</ele>
        <time>2020-06-14T11:44:29Z</time>
      </trkpt>
      <trkpt lat="51.229563854965" lon="4.450353627933">
        <ele>0</ele>
        <time>2020-06-14T11:45:24Z</time>
      </trkpt>
      <trkpt lat="51.229525549682" lon="4.449964456316">
        <ele>0</ele>
        <time>2020-06-14T11:45:51Z</time>
      </trkpt>
      <trkpt lat="51.229459584129" lon="4.449788604054">
        <ele>0</ele>
        <time>2020-06-14T11:46:02Z</time>
      </trkpt>
      <trkpt lat="51.229287922817" lon="4.449135654044">
        <ele>0</ele>
        <time>2020-06-14T11:46:50Z</time>
      </trkpt>
      <trkpt lat="51.22926671661" lon="4.449089218318">
        <ele>0</ele>
        <time>2020-06-14T11:46:53Z</time>
      </trkpt>
      <trkpt lat="51.228943259089" lon="4.44861295876">
        <ele>4.4</ele>
        <time>2020-06-14T11:47:49Z</time>
      </trkpt>
      <trkpt lat="51.228866397066" lon="4.44876299477">
        <ele>6.8</ele>
        <time>2020-06-14T11:48:30Z</time>
      </trkpt>
      <trkpt lat="51.228754331063" lon="4.448940104317">
        <ele>7.8</ele>
        <time>2020-06-14T11:48:48Z</time>
      </trkpt>
      <trkpt lat="51.228455013414" lon="4.449252330092">
        <ele>16</ele>
        <time>2020-06-14T11:49:59Z</time>
      </trkpt>
      <trkpt lat="51.228457108889" lon="4.449248390599">
        <ele>13.6</ele>
        <time>2020-06-14T11:50:17Z</time>
      </trkpt>
      <trkpt lat="51.228511255963" lon="4.449221233243">
        <ele>4.4</ele>
        <time>2020-06-14T11:52:54Z</time>
      </trkpt>
      <trkpt lat="51.228555260938" lon="4.449183347055">
        <ele>5.8</ele>
        <time>2020-06-14T11:52:59Z</time>
      </trkpt>
      <trkpt lat="51.228543945373" lon="4.449116543312">
        <ele>3.6</ele>
        <time>2020-06-14T11:53:04Z</time>
      </trkpt>
      <trkpt lat="51.228838233882" lon="4.448715469397">
        <ele>14.8</ele>
        <time>2020-06-14T11:53:27Z</time>
      </trkpt>
    </trkseg>
  </trk>
</gpx>